createdAt,value
2019-05-18T00:02:06.270Z,39.03
2019-05-18T00:05:17.232Z,39.03
2019-05-18T00:07:51.793Z,37.85
2019-05-18T00:10:51.611Z,40.95
2019-05-18T00:13:23.440Z,36.45
2019-05-18T00:15:57.825Z,39.38
2019-05-18T00:18:32.189Z,37.90
2019-05-18T00:21:03.915Z,37.73
2019-05-18T00:23:39.549Z,37.55
2019-05-18T00:26:11.468Z,41.63
2019-05-18T00:28:47.643Z,37.85
2019-05-18T00:31:18.231Z,41.37
2019-05-18T00:33:51.921Z,39.50
2019-05-18T00:36:20.594Z,37.78
2019-05-18T00:39:25.326Z,39.27
2019-05-18T00:41:56.616Z,38.63
2019-05-18T00:44:28.313Z,46.08
2019-05-18T00:47:02.840Z,41.13
2019-05-18T00:49:33.533Z,40.12
2019-05-18T00:52:05.333Z,37.97
2019-05-18T00:54:36.069Z,39.50
2019-05-18T00:57:22.466Z,40.40
2019-05-18T00:59:52.043Z,38.67
2019-05-18T01:02:23.807Z,37.13
2019-05-18T01:04:55.185Z,34.60
2019-05-18T01:07:26.515Z,36.10
2019-05-18T01:09:58.250Z,38.38
2019-05-18T01:18:41.677Z,37.75
2019-05-18T01:21:56.774Z,40.40
2019-05-18T01:24:42.637Z,39.95
2019-05-18T01:27:13.910Z,42.27
2019-05-18T01:30:00.849Z,38.30
2019-05-18T01:32:36.509Z,41.00
2019-05-18T01:35:08.592Z,41.13
2019-05-18T01:37:40.285Z,39.83
2019-05-18T01:43:19.280Z,38.38
2019-05-18T01:46:11.420Z,39.63
2019-05-18T01:48:46.119Z,37.28
2019-05-18T01:51:30.904Z,39.27
2019-05-18T01:54:16.514Z,38.73
2019-05-18T01:56:50.941Z,36.17
2019-05-18T01:59:22.332Z,40.88
2019-05-18T02:01:50.923Z,38.28
2019-05-18T02:05:08.419Z,39.03
2019-05-18T02:07:43.766Z,38.30
2019-05-18T02:10:12.816Z,41.15
2019-05-18T02:12:41.527Z,42.83
2019-05-18T02:15:13.171Z,36.50
2019-05-18T02:20:19.541Z,36.88
2019-05-18T02:22:51.327Z,37.35
2019-05-18T02:25:43.586Z,38.42
2019-05-18T02:28:12.320Z,41.05
2019-05-18T02:30:46.694Z,40.10
2019-05-18T02:33:19.402Z,40.43
2019-05-18T02:35:57.108Z,40.90
2019-05-18T02:38:28.379Z,39.35
2019-05-18T02:40:59.816Z,43.55
2019-05-18T02:43:30.452Z,43.73
2019-05-18T02:46:03.091Z,42.93
2019-05-18T02:48:48.884Z,47.00
2019-05-18T02:51:11.144Z,42.15
2019-05-18T02:53:40.620Z,42.13
2019-05-18T02:56:18.790Z,41.48
2019-05-18T02:58:53.306Z,40.35
2019-05-18T03:01:32.918Z,49.08
2019-05-18T03:04:01.475Z,43.85
2019-05-18T03:06:35.981Z,46.50
2019-05-18T03:09:10.411Z,42.70
2019-05-18T03:11:43.728Z,43.85
2019-05-18T03:14:37.077Z,42.00
2019-05-18T03:17:31.222Z,47.05
2019-05-18T03:20:12.224Z,39.18
2019-05-18T03:22:42.949Z,50.90
2019-05-18T03:25:23.597Z,46.10
2019-05-18T03:27:52.330Z,43.23
2019-05-18T03:30:31.681Z,41.18
2019-05-18T03:33:20.074Z,45.20
2019-05-18T03:35:51.858Z,40.48
2019-05-18T03:38:37.820Z,42.95
2019-05-18T03:41:11.385Z,42.90
2019-05-18T03:43:45.728Z,47.80
2019-05-18T03:46:17.788Z,43.13
2019-05-18T03:48:46.529Z,47.23
2019-05-18T03:51:41.628Z,42.67
2019-05-18T03:54:16.219Z,48.00
2019-05-18T03:56:50.689Z,42.05
2019-05-18T03:59:25.337Z,39.58
2019-05-18T04:01:57.040Z,46.65
2019-05-18T04:07:05.193Z,42.43
2019-05-18T04:10:11.048Z,43.00
2019-05-18T04:13:02.940Z,44.65
2019-05-18T04:15:31.521Z,42.65
2019-05-18T04:18:00.123Z,41.40
2019-05-18T04:21:05.872Z,43.13
2019-05-18T04:23:50.284Z,38.25
2019-05-18T04:26:21.574Z,33.60
2019-05-18T04:28:55.383Z,33.80
2019-05-18T04:31:37.669Z,33.42
2019-05-18T04:34:15.244Z,29.60
2019-05-18T04:36:46.959Z,29.40
2019-05-18T04:42:41.201Z,26.10
2019-05-18T04:45:12.121Z,24.70
2019-05-18T04:47:41.644Z,24.98
2019-05-18T04:50:25.625Z,24.47
2019-05-18T04:53:24.489Z,23.20
2019-05-18T04:56:07.064Z,24.35
2019-05-18T04:58:35.695Z,21.82
2019-05-18T05:01:10.504Z,22.67
2019-05-18T05:04:05.328Z,23.12
2019-05-18T05:06:34.040Z,22.10
2019-05-18T05:09:02.956Z,21.50
2019-05-18T05:11:34.693Z,22.40
2019-05-18T05:14:32.557Z,23.10
2019-05-18T05:17:04.280Z,23.30
2019-05-18T05:19:51.327Z,24.30
2019-05-18T05:22:28.011Z,22.65
2019-05-18T05:24:59.301Z,22.48
2019-05-18T05:30:12.447Z,22.37
2019-05-18T05:32:56.437Z,23.22
2019-05-18T05:35:42.349Z,22.42
2019-05-18T05:38:10.952Z,24.63
2019-05-18T05:44:07.759Z,24.92
2019-05-18T05:46:37.596Z,24.60
2019-05-18T05:49:11.155Z,25.68
2019-05-18T05:51:39.864Z,26.73
2019-05-18T05:57:05.871Z,27.90
2019-05-18T05:59:43.987Z,25.97
2019-05-18T06:02:14.394Z,29.40
2019-05-18T06:05:02.447Z,29.15
2019-05-18T06:07:33.267Z,28.73
2019-05-18T06:10:19.474Z,30.65
2019-05-18T06:12:53.802Z,31.70
2019-05-18T06:15:26.301Z,31.68
2019-05-18T06:18:06.354Z,30.77
2019-05-18T06:20:50.117Z,33.60
2019-05-18T06:31:47.489Z,42.55
2019-05-18T06:34:19.142Z,45.60
2019-05-18T06:36:57.662Z,45.08
2019-05-18T06:43:05.616Z,46.95
2019-05-18T06:45:35.514Z,46.95
2019-05-18T06:48:10.422Z,43.83
2019-05-18T06:51:06.271Z,43.87
2019-05-18T06:53:28.623Z,43.60
2019-05-18T06:56:23.546Z,41.70
2019-05-18T06:59:06.361Z,42.83
2019-05-18T07:01:48.320Z,44.00
2019-05-18T07:04:35.025Z,42.62
2019-05-18T07:07:47.498Z,43.87
2019-05-18T07:13:28.309Z,44.40
2019-05-18T07:16:12.727Z,46.85
2019-05-18T07:19:00.852Z,45.15
2019-05-18T07:21:35.934Z,46.63
2019-05-18T07:24:26.177Z,48.13
2019-05-18T07:27:01.845Z,52.90
2019-05-18T07:29:46.170Z,52.73
2019-05-18T07:32:19.861Z,54.30
2019-05-18T07:35:01.159Z,56.65
2019-05-18T07:38:03.408Z,56.00
2019-05-18T07:40:41.268Z,50.80
2019-05-18T07:43:19.441Z,51.55
2019-05-18T07:46:02.078Z,46.23
2019-05-18T07:48:32.634Z,47.27
2019-05-18T07:51:10.496Z,51.48
2019-05-18T07:53:45.224Z,49.58
2019-05-18T07:56:19.723Z,48.45
2019-05-18T07:58:54.769Z,46.18
2019-05-18T08:01:34.266Z,52.27
2019-05-18T08:04:08.929Z,50.43
2019-05-18T08:06:38.639Z,51.73
2019-05-18T08:09:10.939Z,49.83
2019-05-18T08:11:43.062Z,49.55
2019-05-18T08:14:14.985Z,51.65
2019-05-18T08:16:50.737Z,54.45
2019-05-18T08:19:20.450Z,53.45
2019-05-18T08:21:56.084Z,52.27
2019-05-18T08:24:34.709Z,53.52
2019-05-18T08:27:06.532Z,55.58
2019-05-18T08:30:31.076Z,49.38
2019-05-18T08:33:02.278Z,52.65
2019-05-18T08:35:31.214Z,50.90
2019-05-18T08:38:05.970Z,58.35
2019-05-18T08:40:35.673Z,56.80
2019-05-18T08:43:11.338Z,56.65
2019-05-18T08:45:49.104Z,57.30
2019-05-18T08:48:20.743Z,55.43
2019-05-18T08:50:52.351Z,54.98
2019-05-18T08:53:20.981Z,52.78
2019-05-18T08:55:52.219Z,54.23
2019-05-18T08:58:30.223Z,54.05
2019-05-18T09:01:01.553Z,60.38
2019-05-18T09:06:08.535Z,57.25
2019-05-18T09:11:14.239Z,53.38
2019-05-18T09:14:57.065Z,55.55
2019-05-18T09:16:24.756Z,52.62
2019-05-18T09:19:01.590Z,54.65
2019-05-18T09:21:49.780Z,54.15
2019-05-18T09:24:22.464Z,49.58
2019-05-18T09:26:55.174Z,49.67
2019-05-18T09:29:26.802Z,50.15
2019-05-18T09:32:05.053Z,49.58
2019-05-18T09:34:46.855Z,49.67
2019-05-18T09:37:15.830Z,52.05
2019-05-18T09:39:44.482Z,47.53
2019-05-18T09:42:27.885Z,50.00
2019-05-18T09:45:04.905Z,52.45
2019-05-18T09:47:46.893Z,49.20
2019-05-18T09:50:56.459Z,54.00
2019-05-18T09:53:31.064Z,50.55
2019-05-18T09:56:20.709Z,48.52
2019-05-18T09:59:39.948Z,50.80
2019-05-18T10:02:08.947Z,46.63
2019-05-18T10:04:39.900Z,48.85
2019-05-18T10:07:17.494Z,46.55
2019-05-18T10:10:00.394Z,47.05
2019-05-18T10:12:35.456Z,46.28
2019-05-18T10:18:06.744Z,45.20
2019-05-18T10:20:47.326Z,48.10
2019-05-18T10:23:19.946Z,45.35
2019-05-18T10:25:48.830Z,45.92
2019-05-18T10:28:20.644Z,45.38
2019-05-18T10:30:56.922Z,43.52
2019-05-18T10:33:27.569Z,44.75
2019-05-18T10:35:59.412Z,43.48
2019-05-18T10:38:36.312Z,47.55
2019-05-18T10:44:04.604Z,40.88
2019-05-18T10:46:35.305Z,45.52
2019-05-18T10:49:08.497Z,42.65
2019-05-18T10:51:50.656Z,43.83
2019-05-18T10:54:22.296Z,37.85
2019-05-18T10:56:58.980Z,36.80
2019-05-18T10:59:31.918Z,38.58
2019-05-18T11:02:15.163Z,41.42
2019-05-18T11:04:47.477Z,37.17
2019-05-18T11:07:21.741Z,37.30
2019-05-18T11:09:50.891Z,39.08
2019-05-18T11:12:26.116Z,43.05
2019-05-18T11:14:56.039Z,36.58
2019-05-18T11:17:24.729Z,36.55
2019-05-18T11:19:59.136Z,42.00
2019-05-18T11:22:35.210Z,39.85
2019-05-18T11:25:07.031Z,36.48
2019-05-18T11:27:45.422Z,36.53
2019-05-18T11:30:16.006Z,38.85
2019-05-18T11:32:49.943Z,41.55
2019-05-18T11:35:31.863Z,39.48
2019-05-18T11:38:03.095Z,36.95
2019-05-18T11:43:13.759Z,40.33
2019-05-18T11:45:43.353Z,38.10
2019-05-18T11:48:21.939Z,38.70
2019-05-18T11:51:00.256Z,35.88
2019-05-18T11:53:28.949Z,36.00
2019-05-18T11:55:59.734Z,35.23
2019-05-18T11:58:59.624Z,31.35
2019-05-18T12:01:34.175Z,24.55
2019-05-18T12:04:49.561Z,26.17
2019-05-18T12:07:49.076Z,27.77
2019-05-18T12:10:21.483Z,30.40
2019-05-18T12:12:56.247Z,24.12
2019-05-18T12:15:25.064Z,20.72
2019-05-18T12:17:57.034Z,20.35
2019-05-18T12:20:27.943Z,21.15
2019-05-18T12:23:02.662Z,17.37
2019-05-18T12:25:34.075Z,17.80
2019-05-18T12:28:02.963Z,16.85
2019-05-18T12:30:34.350Z,18.40
2019-05-18T12:33:14.289Z,18.35
2019-05-18T12:35:44.858Z,16.10
2019-05-18T12:38:19.338Z,17.82
2019-05-18T12:40:50.616Z,17.67
2019-05-18T12:43:19.378Z,24.23
2019-05-18T12:45:48.126Z,24.00
2019-05-18T12:48:22.874Z,22.60
2019-05-18T12:50:54.576Z,22.30
2019-05-18T12:53:28.993Z,22.50
2019-05-18T12:56:03.660Z,21.60
2019-05-18T12:58:37.701Z,18.98
2019-05-18T13:01:12.292Z,15.63
2019-05-18T13:03:51.492Z,15.18
2019-05-18T13:06:26.116Z,14.58
2019-05-18T13:08:54.714Z,13.68
2019-05-18T13:11:23.406Z,11.55
2019-05-18T13:14:23.320Z,11.63
2019-05-18T13:16:55.462Z,12.78
2019-05-18T13:19:24.121Z,13.98
2019-05-18T13:21:55.421Z,15.78
2019-05-18T13:24:44.262Z,16.85
2019-05-18T13:27:11.478Z,13.62
2019-05-18T13:29:46.266Z,17.62
2019-05-18T13:33:13.559Z,13.88
2019-05-18T13:35:48.326Z,12.37
2019-05-18T13:38:19.706Z,9.85
2019-05-18T13:41:05.876Z,9.68
2019-05-18T13:43:35.443Z,11.90
2019-05-18T13:46:04.707Z,11.30
2019-05-18T13:48:36.409Z,12.43
2019-05-18T13:51:06.110Z,12.03
2019-05-18T13:53:34.728Z,13.62
2019-05-18T13:56:09.377Z,11.00
2019-05-18T13:58:41.049Z,10.25
2019-05-18T14:01:10.111Z,11.95
2019-05-18T14:03:58.354Z,7.17
2019-05-18T14:06:33.169Z,6.75
2019-05-18T14:09:06.031Z,7.62
2019-05-18T14:11:34.747Z,11.03
2019-05-18T14:14:06.478Z,10.53
2019-05-18T14:16:40.551Z,8.55
2019-05-18T14:19:12.277Z,9.38
2019-05-18T14:21:42.100Z,10.35
2019-05-18T14:24:22.759Z,10.10
2019-05-18T14:26:51.566Z,8.73
2019-05-18T14:29:21.296Z,11.25
2019-05-18T14:31:56.056Z,9.50
2019-05-18T14:34:45.797Z,8.58
2019-05-18T14:37:51.056Z,12.88
2019-05-18T14:40:24.396Z,11.15
2019-05-18T14:42:58.248Z,13.00
2019-05-18T14:45:29.904Z,11.97
2019-05-18T14:48:10.621Z,11.33
2019-05-18T14:50:43.784Z,10.50
2019-05-18T14:53:12.553Z,10.95
2019-05-18T14:55:56.195Z,9.43
2019-05-18T14:58:45.920Z,8.13
2019-05-18T15:01:32.781Z,8.85
2019-05-18T15:04:13.379Z,7.97
2019-05-18T15:06:55.782Z,9.48
2019-05-18T15:09:24.431Z,7.58
2019-05-18T15:11:55.559Z,9.23
2019-05-18T15:14:24.336Z,10.70
2019-05-18T15:16:53.340Z,12.45
2019-05-18T15:19:23.121Z,10.50
2019-05-18T15:22:01.151Z,12.28
2019-05-18T15:24:29.910Z,12.00
2019-05-18T15:27:00.430Z,11.38
2019-05-18T15:29:48.123Z,11.97
2019-05-18T15:32:17.335Z,11.65
2019-05-18T15:35:14.870Z,12.03
2019-05-18T15:38:18.964Z,10.80
2019-05-18T15:40:48.434Z,12.53
2019-05-18T15:43:22.805Z,11.35
2019-05-18T15:45:51.962Z,13.20
2019-05-18T15:48:26.043Z,9.85
2019-05-18T15:51:00.443Z,9.33
2019-05-18T15:53:31.558Z,10.15
2019-05-18T15:56:05.870Z,11.85
2019-05-18T15:58:39.302Z,12.05
2019-05-18T16:01:12.954Z,9.20
2019-05-18T16:03:46.895Z,11.70
2019-05-18T16:06:29.037Z,11.57
2019-05-18T16:09:00.343Z,10.53
2019-05-18T16:11:35.256Z,11.33
2019-05-18T16:14:08.919Z,11.93
2019-05-18T16:16:44.249Z,9.25
2019-05-18T16:19:15.669Z,8.25
2019-05-18T16:21:46.873Z,9.58
2019-05-18T16:24:17.410Z,9.53
2019-05-18T16:26:46.475Z,7.83
2019-05-18T16:29:38.658Z,8.63
2019-05-18T16:32:04.545Z,14.70
2019-05-18T16:34:36.772Z,15.25
2019-05-18T16:37:08.645Z,10.93
2019-05-18T16:39:45.242Z,11.65
2019-05-18T16:48:57.878Z,17.62
2019-05-18T16:51:37.652Z,15.40
2019-05-18T16:55:18.531Z,15.15
2019-05-18T16:57:09.531Z,16.55
2019-05-18T17:02:31.529Z,16.60
2019-05-18T17:05:25.371Z,15.00
2019-05-18T17:08:08.852Z,14.60
2019-05-18T17:12:50.140Z,14.90
2019-05-18T17:13:26.207Z,15.28
2019-05-18T17:17:34.874Z,13.90
2019-05-18T17:19:18.085Z,15.45
2019-05-18T17:21:51.662Z,15.93
2019-05-18T17:24:23.161Z,18.67
2019-05-18T17:27:13.958Z,19.80
2019-05-18T17:29:49.022Z,23.85
2019-05-18T17:32:59.638Z,22.20
2019-05-18T17:35:27.878Z,29.63
2019-05-18T17:38:24.361Z,27.13
2019-05-18T17:40:56.790Z,28.02
2019-05-18T17:43:32.074Z,31.60
2019-05-18T17:46:04.890Z,33.75
2019-05-18T17:48:35.633Z,30.85
2019-05-18T17:51:12.926Z,34.08
2019-05-18T17:53:48.065Z,34.03
2019-05-18T17:56:17.549Z,36.93
2019-05-18T17:58:55.302Z,35.10
2019-05-18T18:01:24.183Z,36.25
2019-05-18T18:04:01.484Z,35.55
2019-05-18T18:07:20.620Z,38.05
2019-05-18T18:09:07.677Z,36.70
2019-05-18T18:14:51.099Z,38.10
2019-05-18T18:17:26.249Z,38.13
2019-05-18T18:19:57.134Z,42.40
2019-05-18T18:22:26.676Z,40.73
2019-05-18T18:25:07.850Z,47.05
2019-05-18T18:27:37.819Z,46.45
2019-05-18T18:30:12.449Z,44.80
2019-05-18T18:32:43.301Z,49.70
2019-05-18T18:35:28.189Z,57.13
2019-05-18T18:41:07.988Z,48.60
2019-05-18T18:43:45.464Z,56.18
2019-05-18T18:46:30.502Z,53.40
2019-05-18T18:49:08.801Z,51.75
2019-05-18T18:51:49.301Z,50.80
2019-05-18T18:54:18.781Z,48.80
2019-05-18T18:56:54.178Z,51.98
2019-05-18T18:59:42.178Z,52.53
2019-05-18T19:02:17.198Z,52.00
2019-05-18T19:04:49.372Z,61.53
2019-05-18T19:07:19.621Z,56.85
2019-05-18T19:09:57.232Z,56.13
2019-05-18T19:12:32.330Z,55.08
2019-05-18T19:15:23.181Z,59.95
2019-05-18T19:17:55.103Z,64.87
2019-05-18T19:20:48.463Z,63.68
2019-05-18T19:23:32.220Z,66.28
2019-05-18T19:26:02.169Z,64.87
2019-05-18T19:28:36.068Z,66.55
2019-05-18T19:31:20.893Z,62.75
2019-05-18T19:33:46.209Z,70.45
2019-05-18T19:36:19.144Z,67.08
2019-05-18T19:38:54.467Z,65.90
2019-05-18T19:41:29.059Z,63.78
2019-05-18T19:43:57.954Z,65.80
2019-05-18T19:46:27.524Z,63.55
2019-05-18T19:48:56.118Z,61.73
2019-05-18T19:51:28.245Z,60.40
2019-05-18T19:54:00.806Z,67.90
2019-05-18T19:56:41.367Z,64.03
2019-05-18T19:59:34.418Z,66.37
2019-05-18T20:02:13.200Z,65.22
2019-05-18T20:05:05.635Z,66.28
2019-05-18T20:07:19.484Z,61.80
2019-05-18T20:09:52.915Z,64.20
2019-05-18T20:12:28.872Z,65.50
2019-05-18T20:14:57.731Z,64.58
2019-05-18T20:17:33.946Z,68.92
2019-05-18T20:20:02.862Z,62.83
2019-05-18T20:22:37.689Z,65.22
2019-05-18T20:25:11.636Z,67.12
2019-05-18T20:27:42.879Z,68.07
2019-05-18T20:32:42.133Z,66.35
2019-05-18T20:35:20.424Z,64.82
2019-05-18T20:37:52.286Z,66.72
2019-05-18T20:40:27.161Z,70.20
2019-05-18T20:43:02.354Z,63.85
2019-05-18T20:45:35.878Z,63.65
2019-05-18T20:48:08.232Z,67.87
2019-05-18T20:50:52.015Z,68.78
2019-05-18T20:53:24.945Z,63.68
2019-05-18T20:56:02.099Z,63.45
2019-05-18T20:58:40.398Z,64.30
2019-05-18T21:01:39.861Z,71.02
2019-05-18T21:04:20.592Z,65.57
2019-05-18T21:06:51.379Z,69.65
2019-05-18T21:09:27.172Z,67.82
2019-05-18T21:11:56.819Z,69.10
2019-05-18T21:14:25.461Z,68.62
2019-05-18T21:16:56.082Z,68.60
2019-05-18T21:19:37.026Z,72.37
2019-05-18T21:22:06.755Z,70.08
2019-05-18T21:24:43.049Z,70.78
2019-05-18T21:27:18.657Z,76.47
2019-05-18T21:29:51.251Z,73.47
2019-05-18T21:32:26.565Z,71.30
2019-05-18T21:34:56.201Z,75.60
2019-05-18T21:37:25.710Z,71.40
2019-05-18T21:40:42.425Z,79.50
2019-05-18T21:43:14.457Z,72.87
2019-05-18T21:46:00.430Z,73.52
2019-05-18T21:48:46.340Z,80.70
2019-05-18T21:51:15.878Z,82.85
2019-05-18T21:53:46.911Z,78.20
2019-05-18T21:56:28.760Z,79.97
2019-05-18T21:59:13.454Z,81.57
2019-05-18T22:01:49.783Z,86.05
2019-05-18T22:04:21.723Z,81.65
2019-05-18T22:07:43.875Z,83.52
2019-05-18T22:10:25.353Z,87.05
2019-05-18T22:12:50.096Z,85.35
2019-05-18T22:15:22.083Z,89.85
2019-05-18T22:18:03.252Z,90.20
2019-05-18T22:20:43.504Z,88.80
2019-05-18T22:23:27.556Z,88.95
2019-05-18T22:26:06.042Z,87.78
2019-05-18T22:28:35.142Z,92.15
2019-05-18T22:31:19.687Z,92.70
2019-05-18T22:33:52.389Z,92.55
2019-05-18T22:36:24.865Z,93.00
2019-05-18T22:39:04.151Z,95.15
2019-05-18T22:41:40.092Z,93.42
2019-05-18T22:44:11.800Z,94.80
2019-05-18T22:49:18.484Z,88.92
2019-05-18T22:52:20.614Z,94.77
2019-05-18T22:55:08.336Z,92.67
2019-05-18T22:57:44.298Z,93.22
2019-05-18T23:00:24.079Z,94.80
2019-05-18T23:02:53.003Z,96.20
2019-05-18T23:05:22.223Z,99.92
2019-05-18T23:07:51.763Z,102.72
2019-05-18T23:10:24.756Z,99.25
2019-05-18T23:13:01.817Z,104.58
2019-05-18T23:15:33.988Z,109.05
2019-05-18T23:18:06.444Z,104.78
2019-05-18T23:20:36.322Z,105.05
2019-05-18T23:23:15.974Z,107.95
2019-05-18T23:25:48.544Z,108.87
2019-05-18T23:28:21.137Z,103.72
2019-05-18T23:30:50.150Z,107.95
2019-05-18T23:33:23.493Z,111.00
2019-05-18T23:35:58.584Z,112.25
2019-05-18T23:38:30.139Z,120.10
2019-05-18T23:41:02.935Z,116.60
2019-05-18T23:43:41.017Z,121.13
2019-05-18T23:46:17.889Z,123.07
2019-05-18T23:48:46.896Z,118.08
2019-05-18T23:51:20.128Z,117.72
2019-05-18T23:53:53.900Z,124.50
2019-05-18T23:56:26.048Z,117.60
2019-05-18T23:59:13.616Z,122.78
